Time;durP1;ratioP1;P1;durP2;ratioP2;P2;SDS_P1;SDS_P2;PMS_P1;PMS_P2;Temp;Humidity;BMP_temperature;BMP_pressure;BME280_temperature;BME280_humidity;BME280_pressure;Samples;Min_cycle;Max_cycle;Signal;HPM_P1;HPM_P2
2023/10/02 00:02:40;;;;;;;;;;;;;;;;;;4985698;28;19955;-59
2023/10/02 00:05:05;;;;;;;;;;;;;;;;;;5001789;28;19909;-60
2023/10/02 00:07:30;;;;;;;;;;;;;;;;;;4983833;28;20433;-67
2023/10/02 00:09:55;;;;;;;;;;;;;;;;;;5000668;28;19909;-67
2023/10/02 00:12:21;;;;;;;;;;;;;;;;;;5000264;28;20390;-62
2023/10/02 00:14:48;;;;;;;;;;;;;;;;;;5042051;28;19909;-59
2023/10/02 00:17:18;;;;;;;;;;;;;;;;;;5041184;28;19915;-64
2023/10/02 00:19:44;;;;;;;;;;;;;;;;;;5043951;28;19913;-65
2023/10/02 00:22:09;;;;;;;;;;;;;;;;;;5041154;28;19960;-60
2023/10/02 00:24:37;;;;;;;;;;;;;;;;;;5044119;28;19952;-62
2023/10/02 00:27:02;;;;;;;;;;;;;;;;;;5024124;28;20247;-64
2023/10/02 00:29:28;;;;;;;;;;;;;;;;;;5044070;28;19963;-66
2023/10/02 00:31:53;;;;;;;;;;;;;;;;;;5044221;28;19913;-67
2023/10/02 00:34:30;;;;;;;;;;;;;;;;;;5043811;28;19904;-67
2023/10/02 00:36:55;;;;;;;;;;;;;;;;;;5043778;28;20292;-59
2023/10/02 00:39:32;;;;;;;;;;;;;;;;;;5043967;28;20258;-61
2023/10/02 00:42:15;;;;;;;;;;;;;;;;;;5025949;28;19952;-60
2023/10/02 00:44:57;;;;;;;;;;;;;;;;;;5044231;28;19905;-61
2023/10/02 00:47:41;;;;;;;;;;;;;;;;;;5039743;28;19909;-62
2023/10/02 00:50:16;;;;;;;;;;;;;;;;;;5044123;28;19904;-60
2023/10/02 00:52:42;;;;;;;;;;;;;;;;;;5041642;28;19920;-63
2023/10/02 00:55:07;;;;;;;;;;;;;;;;;;5042132;28;19970;-66
2023/10/02 00:57:35;;;;;;;;;;;;;;;;;;4999359;28;19917;-63
2023/10/02 01:00:03;;;;;;;;;;;;;;;;;;4984902;28;19979;-67
2023/10/02 01:02:28;;;;;;;;;;;;;;;;;;4983130;28;20309;-63
2023/10/02 01:04:56;;;;;;;;;;;;;;;;;;4999812;28;19992;-67
2023/10/02 01:07:22;;;;;;;;;;;;;;;;;;4999492;28;19909;-63
2023/10/02 01:10:06;;;;;;;;;;;;;;;;;;5000961;28;19928;-60
2023/10/02 01:12:43;;;;;;;;;;;;;;;;;;4999257;28;19925;-61
2023/10/02 01:15:11;;;;;;;;;;;;;;;;;;4998991;28;19909;-66
2023/10/02 01:17:37;;;;;;;;;;;;;;;;;;4998143;28;19913;-66
2023/10/02 01:20:08;;;;;;;;;;;;;;;;;;5000538;28;19905;-57
2023/10/02 01:22:34;;;;;;;;;;;;;;;;;;4999056;28;20333;-65
2023/10/02 01:25:14;;;;;;;;;;;;;;;;;;4999409;28;20263;-67
2023/10/02 01:27:46;;;;;;;;;;;;;;;;;;5004253;28;20044;-63
2023/10/02 01:30:15;;;;;;;;;;;;;;;;;;5042719;28;20003;-66
2023/10/02 01:32:41;;;;;;;;;;;;;;;;;;5040317;28;19970;-64
2023/10/02 01:35:06;;;;;;;;;;;;;;;;;;5042833;28;19909;-67
2023/10/02 01:37:35;;;;;;;;;;;;;;;;;;5040511;28;19923;-66
2023/10/02 01:42:44;;;;;;;;;;;;;;;;;;5040984;28;20352;-60
2023/10/02 01:45:10;;;;;;;;;;;;;;;;;;5042294;28;19905;-63
2023/10/02 01:47:41;;;;;;;;;;;;;;;;;;5041242;28;19940;-65
2023/10/02 01:50:06;;;;;;;;;;;;;;;;;;5041819;28;19959;-66
2023/10/02 01:52:31;;;;;;;;;;;;;;;;;;5040047;28;19916;-60
2023/10/02 01:54:56;;;;;;;;;;;;;;;;;;5041183;28;19909;-62
2023/10/02 01:57:24;;;;;;;;;;;;;;;;;;5039006;28;20453;-65
2023/10/02 01:59:49;;;;;;;;;;;;;;;;;;5042360;28;19909;-59
2023/10/02 02:02:14;;;;;;;;;;;;;;;;;;5038721;28;19909;-63
2023/10/02 02:04:43;;;;;;;;;;;;;;;;;;5042346;28;19958;-65
2023/10/02 02:07:08;;;;;;;;;;;;;;;;;;5040546;28;19916;-65
2023/10/02 02:09:37;;;;;;;;;;;;;;;;;;5042043;28;19904;-60
2023/10/02 02:12:05;;;;;;;;;;;;;;;;;;5040092;28;20350;-66
2023/10/02 02:14:31;;;;;;;;;;;;;;;;;;5040155;28;19916;-67
2023/10/02 02:16:56;;;;;;;;;;;;;;;;;;5037311;28;19916;-58
2023/10/02 02:19:23;;;;;;;;;;;;;;;;;;5041798;28;19905;-64
2023/10/02 02:21:49;;;;;;;;;;;;;;;;;;5039242;28;19962;-62
2023/10/02 02:24:14;;;;;;;;;;;;;;;;;;5020938;28;19913;-66
2023/10/02 02:26:39;;;;;;;;;;;;;;;;;;5039688;28;19916;-61
2023/10/02 02:29:04;;;;;;;;;;;;;;;;;;5040651;28;20294;-63
2023/10/02 02:31:29;;;;;;;;;;;;;;;;;;5037901;28;20414;-61
2023/10/02 02:33:54;;;;;;;;;;;;;;;;;;5041679;28;19911;-64
2023/10/02 02:36:22;;;;;;;;;;;;;;;;;;5038882;28;19917;-65
2023/10/02 02:38:48;;;;;;;;;;;;;;;;;;5022456;28;19924;-66
2023/10/02 02:41:18;;;;;;;;;;;;;;;;;;5038333;28;19998;-67
2023/10/02 02:43:46;;;;;;;;;;;;;;;;;;5041288;28;19956;-60
2023/10/02 02:46:17;;;;;;;;;;;;;;;;;;5020006;28;19909;-61
2023/10/02 02:48:43;;;;;;;;;;;;;;;;;;5021756;28;19905;-66
2023/10/02 02:51:14;;;;;;;;;;;;;;;;;;5020936;28;19999;-65
2023/10/02 02:53:40;;;;;;;;;;;;;;;;;;5021359;28;19909;-63
2023/10/02 02:56:15;;;;;;;;;;;;;;;;;;5020694;28;19905;-61
2023/10/02 02:58:40;;;;;;;;;;;;;;;;;;5039340;28;19915;-66
2023/10/02 03:01:06;;;;;;;;;;;;;;;;;;5038039;28;20285;-67
2023/10/02 03:03:34;;;;;;;;;;;;;;;;;;5038840;28;19908;-67
2023/10/02 03:05:59;;;;;;;;;;;;;;;;;;5040893;28;20190;-61
2023/10/02 03:08:37;;;;;;;;;;;;;;;;;;5038427;28;19909;-67
2023/10/02 03:11:06;;;;;;;;;;;;;;;;;;5039606;28;19911;-61
2023/10/02 03:13:31;;;;;;;;;;;;;;;;;;5040088;28;19911;-64
2023/10/02 03:16:08;;;;;;;;;;;;;;;;;;5038560;28;19909;-65
2023/10/02 03:18:36;;;;;;;;;;;;;;;;;;5041109;28;20338;-67
2023/10/02 03:23:33;;;;;;;;;;;;;;;;;;5040544;28;19905;-67
2023/10/02 03:25:59;;;;;;;;;;;;;;;;;;5040924;28;19936;-64
2023/10/02 03:28:27;;;;;;;;;;;;;;;;;;5039418;28;19944;-67
2023/10/02 03:30:52;;;;;;;;;;;;;;;;;;5038857;28;19916;-67
2023/10/02 03:33:17;;;;;;;;;;;;;;;;;;5038339;28;19917;-66
2023/10/02 03:35:51;;;;;;;;;;;;;;;;;;5040520;28;19905;-63
2023/10/02 03:38:16;;;;;;;;;;;;;;;;;;5038778;28;20494;-67
2023/10/02 03:40:45;;;;;;;;;;;;;;;;;;5040816;28;20132;-58
2023/10/02 03:43:19;;;;;;;;;;;;;;;;;;5021155;28;19915;-62
2023/10/02 03:45:44;;;;;;;;;;;;;;;;;;5038571;28;19911;-67
2023/10/02 03:48:09;;;;;;;;;;;;;;;;;;5039042;28;20277;-61
2023/10/02 03:50:37;;;;;;;;;;;;;;;;;;5040924;28;20113;-61
2023/10/02 03:53:12;;;;;;;;;;;;;;;;;;5019452;28;19983;-61
2023/10/02 03:55:39;;;;;;;;;;;;;;;;;;5038217;28;19916;-62
2023/10/02 03:58:05;;;;;;;;;;;;;;;;;;5038872;28;19991;-62
2023/10/02 04:00:43;;;;;;;;;;;;;;;;;;5040684;28;20003;-67
2023/10/02 04:03:08;;;;;;;;;;;;;;;;;;5038885;28;19948;-66
2023/10/02 04:05:43;;;;;;;;;;;;;;;;;;5039295;28;19951;-67
2023/10/02 04:10:57;;;;;;;;;;;;;;;;;;5040477;28;19944;-66
2023/10/02 04:13:24;;;;;;;;;;;;;;;;;;5004866;28;19921;-66
2023/10/02 04:15:53;;;;;;;;;;;;;;;;;;5041989;28;19913;-66
2023/10/02 04:18:45;;;;;;;;;;;;;;;;;;5042967;28;20017;-62
2023/10/02 04:21:09;;;;;;;;;;;;;;;;;;5041194;28;19909;-65
2023/10/02 04:23:38;;;;;;;;;;;;;;;;;;5025234;28;20464;-63
2023/10/02 04:26:05;;;;;;;;;;;;;;;;;;5042588;28;19912;-60
2023/10/02 04:28:38;;;;;;;;;;;;;;;;;;5040423;28;19909;-64
2023/10/02 04:31:06;;;;;;;;;;;;;;;;;;5042599;28;19976;-62
2023/10/02 04:33:37;;;;;;;;;;;;;;;;;;5043950;28;19959;-66
2023/10/02 04:36:05;;;;;;;;;;;;;;;;;;5040823;28;19917;-61
2023/10/02 04:38:55;;;;;;;;;;;;;;;;;;5043614;28;19923;-60
2023/10/02 04:41:26;;;;;;;;;;;;;;;;;;5042043;28;19932;-61
2023/10/02 04:43:57;;;;;;;;;;;;;;;;;;5044075;28;19959;-61
2023/10/02 04:46:24;;;;;;;;;;;;;;;;;;5039721;28;19977;-67
2023/10/02 04:48:54;;;;;;;;;;;;;;;;;;5043725;28;19912;-63
2023/10/02 04:51:19;;;;;;;;;;;;;;;;;;5041859;28;20740;-65
2023/10/02 04:53:46;;;;;;;;;;;;;;;;;;5043717;28;20451;-66
2023/10/02 04:58:49;;;;;;;;;;;;;;;;;;5027372;28;19908;-64
2023/10/02 05:02:17;;;;;;;;;;;;;;;;;;5041551;28;20039;-62
2023/10/02 05:04:06;;;;;;;;;;;;;;;;;;5039093;28;19962;-63
2023/10/02 05:11:50;;;;;;;;;;;;;;;;;;5040300;28;19920;-66
2023/10/02 05:14:15;;;;;;;;;;;;;;;;;;5042822;28;19958;-62
2023/10/02 05:16:42;;;;;;;;;;;;;;;;;;5041340;28;19912;-63
2023/10/02 05:19:07;;;;;;;;;;;;;;;;;;5040218;28;19909;-64
2023/10/02 05:21:55;;;;;;;;;;;;;;;;;;5038426;28;19942;-62
2023/10/02 05:24:20;;;;;;;;;;;;;;;;;;5038227;28;19909;-66
2023/10/02 05:26:46;;;;;;;;;;;;;;;;;;5030603;28;19908;-62
2023/10/02 05:29:35;;;;;;;;;;;;;;;;;;5038583;28;19916;-64
2023/10/02 05:32:16;;;;;;;;;;;;;;;;;;5040715;28;19970;-65
2023/10/02 05:34:58;;;;;;;;;;;;;;;;;;5040734;28;19999;-64
2023/10/02 05:37:30;;;;;;;;;;;;;;;;;;5040659;28;21588;-62
2023/10/02 05:40:14;;;;;;;;;;;;;;;;;;5041277;28;19935;-60
2023/10/02 05:42:46;;;;;;;;;;;;;;;;;;5021376;28;19963;-62
2023/10/02 05:45:13;;;;;;;;;;;;;;;;;;5043526;28;19905;-66
2023/10/02 05:47:40;;;;;;;;;;;;;;;;;;5038605;28;19919;-63
2023/10/02 05:50:05;;;;;;;;;;;;;;;;;;5042970;28;20008;-62
2023/10/02 05:52:32;;;;;;;;;;;;;;;;;;5040060;28;20020;-65
2023/10/02 05:54:58;;;;;;;;;;;;;;;;;;5022948;28;20333;-66
2023/10/02 05:57:23;;;;;;;;;;;;;;;;;;5032466;28;19909;-67
2023/10/02 05:59:57;;;;;;;;;;;;;;;;;;5039369;28;19970;-63
2023/10/02 06:02:23;;;;;;;;;;;;;;;;;;5036255;28;19909;-63
2023/10/02 06:04:48;;;;;;;;;;;;;;;;;;5036895;28;19996;-64
2023/10/02 06:07:19;;;;;;;;;;;;;;;;;;5036935;28;19909;-63
2023/10/02 06:09:44;;;;;;;;;;;;;;;;;;5028189;28;19997;-63
2023/10/02 06:12:11;;;;;;;;;;;;;;;;;;5034486;28;20086;-62
2023/10/02 06:14:38;;;;;;;;;;;;;;;;;;5034110;28;20116;-62
2023/10/02 06:17:04;;;;;;;;;;;;;;;;;;5040663;28;19912;-62
2023/10/02 06:19:42;;;;;;;;;;;;;;;;;;5043144;28;19913;-56
2023/10/02 06:22:07;;;;;;;;;;;;;;;;;;5031921;28;20276;-61
2023/10/02 06:24:32;;;;;;;;;;;;;;;;;;5029454;28;19940;-61
2023/10/02 06:26:57;;;;;;;;;;;;;;;;;;5034502;28;20075;-59
2023/10/02 06:29:23;;;;;;;;;;;;;;;;;;5039498;28;19923;-59
2023/10/02 06:31:51;;;;;;;;;;;;;;;;;;5036667;28;19927;-58
2023/10/02 06:34:16;;;;;;;;;;;;;;;;;;5042105;28;19913;-60
2023/10/02 06:37:02;;;;;;;;;;;;;;;;;;5040370;28;19954;-58
2023/10/02 06:39:29;;;;;;;;;;;;;;;;;;5034899;28;19928;-59
2023/10/02 06:42:03;;;;;;;;;;;;;;;;;;5040725;28;19916;-59
2023/10/02 06:44:37;;;;;;;;;;;;;;;;;;5037963;28;19952;-61
2023/10/02 06:47:04;;;;;;;;;;;;;;;;;;5040856;28;19970;-60
2023/10/02 06:49:30;;;;;;;;;;;;;;;;;;5018614;28;20828;-58
2023/10/02 06:52:10;;;;;;;;;;;;;;;;;;5010978;28;20437;-59
2023/10/02 06:54:42;;;;;;;;;;;;;;;;;;5039185;28;19931;-58
2023/10/02 06:57:11;;;;;;;;;;;;;;;;;;5022436;28;19909;-57
2023/10/02 06:59:38;;;;;;;;;;;;;;;;;;5036709;28;19916;-54
2023/10/02 07:02:04;;;;;;;;;;;;;;;;;;5035700;28;20454;-57
2023/10/02 07:04:35;;;;;;;;;;;;;;;;;;5040391;28;20046;-51
2023/10/02 07:07:03;;;;;;;;;;;;;;;;;;5039559;28;19917;-58
2023/10/02 07:09:28;;;;;;;;;;;;;;;;;;5042240;28;19935;-57
2023/10/02 07:11:55;;;;;;;;;;;;;;;;;;5037109;28;19924;-58
2023/10/02 07:14:23;;;;;;;;;;;;;;;;;;5041382;28;19909;-57
2023/10/02 07:16:48;;;;;;;;;;;;;;;;;;5038512;28;19947;-59
2023/10/02 07:19:13;;;;;;;;;;;;;;;;;;5042509;28;20390;-57
2023/10/02 07:21:40;;;;;;;;;;;;;;;;;;5041411;28;19916;-59
2023/10/02 07:24:25;;;;;;;;;;;;;;;;;;5031829;28;19955;-59
2023/10/02 07:26:51;;;;;;;;;;;;;;;;;;5034332;28;19908;-59
2023/10/02 07:29:17;;;;;;;;;;;;;;;;;;5038303;28;20358;-57
2023/10/02 07:31:44;;;;;;;;;;;;;;;;;;5040281;28;20007;-58
2023/10/02 07:34:09;;;;;;;;;;;;;;;;;;5034246;28;20633;-58
2023/10/02 07:36:44;;;;;;;;;;;;;;;;;;5033658;28;20404;-58
2023/10/02 07:39:34;;;;;;;;;;;;;;;;;;5040552;28;20492;-59
2023/10/02 07:42:00;;;;;;;;;;;;;;;;;;5029790;28;19909;-59
2023/10/02 07:44:25;;;;;;;;;;;;;;;;;;5040032;28;19932;-60
2023/10/02 07:46:55;;;;;;;;;;;;;;;;;;5035524;28;19909;-58
2023/10/02 07:49:21;;;;;;;;;;;;;;;;;;5027792;28;20274;-59
2023/10/02 07:51:48;;;;;;;;;;;;;;;;;;5039048;28;19928;-59
2023/10/02 07:54:13;;;;;;;;;;;;;;;;;;5043586;28;19909;-56
2023/10/02 07:56:39;;;;;;;;;;;;;;;;;;5038315;28;21528;-59
2023/10/02 07:59:07;;;;;;;;;;;;;;;;;;5043282;28;20282;-57
2023/10/02 08:01:36;;;;;;;;;;;;;;;;;;5041486;28;20318;-57
2023/10/02 08:04:04;;;;;;;;;;;;;;;;;;5044293;28;19909;-58
2023/10/02 08:06:36;;;;;;;;;;;;;;;;;;5043384;28;20266;-60
2023/10/02 08:11:53;;;;;;;;;;;;;;;;;;5036539;28;19924;-60
2023/10/02 08:17:08;;;;;;;;;;;;;;;;;;5039248;28;19916;-59
2023/10/02 08:19:33;;;;;;;;;;;;;;;;;;5043134;28;19909;-55
2023/10/02 08:21:58;;;;;;;;;;;;;;;;;;5040445;28;19963;-60
2023/10/02 08:24:23;;;;;;;;;;;;;;;;;;5032447;28;19978;-58
2023/10/02 08:26:50;;;;;;;;;;;;;;;;;;5039641;28;20009;-58
2023/10/02 08:29:15;;;;;;;;;;;;;;;;;;5038940;28;20510;-59
2023/10/02 08:31:49;;;;;;;;;;;;;;;;;;5044862;28;20394;-60
2023/10/02 08:34:19;;;;;;;;;;;;;;;;;;5037667;28;19924;-59
2023/10/02 08:36:44;;;;;;;;;;;;;;;;;;5041301;28;19933;-53
2023/10/02 08:39:09;;;;;;;;;;;;;;;;;;5043734;28;19933;-60
2023/10/02 08:41:43;;;;;;;;;;;;;;;;;;5039566;28;19915;-57
2023/10/02 08:44:08;;;;;;;;;;;;;;;;;;5046236;28;20491;-60
2023/10/02 08:46:35;;;;;;;;;;;;;;;;;;5044609;28;20174;-60
2023/10/02 08:49:03;;;;;;;;;;;;;;;;;;5025250;28;19921;-56
2023/10/02 08:51:32;;;;;;;;;;;;;;;;;;5041743;28;19968;-59
2023/10/02 08:53:57;;;;;;;;;;;;;;;;;;5045216;28;19967;-60
2023/10/02 08:56:23;;;;;;;;;;;;;;;;;;5042074;28;19912;-60
2023/10/02 09:01:33;;;;;;;;;;;;;;;;;;5033226;28;20004;-61
2023/10/02 09:06:44;;;;;;;;;;;;;;;;;;5021726;28;19916;-59
2023/10/02 09:09:15;;;;;;;;;;;;;;;;;;5023052;28;20384;-60
2023/10/02 09:11:41;;;;;;;;;;;;;;;;;;5022410;28;20015;-59
2023/10/02 09:14:20;;;;;;;;;;;;;;;;;;5019909;28;19917;-57
2023/10/02 09:16:46;;;;;;;;;;;;;;;;;;5025826;28;19983;-59
2023/10/02 09:19:28;;;;;;;;;;;;;;;;;;5023538;28;19917;-59
2023/10/02 09:22:06;;;;;;;;;;;;;;;;;;5023063;28;20425;-59
2023/10/02 09:24:31;;;;;;;;;;;;;;;;;;5038309;28;19970;-60
2023/10/02 09:27:20;;;;;;;;;;;;;;;;;;5035135;28;19955;-57
2023/10/02 09:29:43;;;;;;;;;;;;;;;;;;5032190;28;19935;-59
2023/10/02 09:32:21;;;;;;;;;;;;;;;;;;5045243;28;20293;-60
2023/10/02 09:35:08;;;;;;;;;;;;;;;;;;5024263;28;19909;-60
2023/10/02 09:37:35;;;;;;;;;;;;;;;;;;5040675;28;21019;-59
2023/10/02 09:40:09;;;;;;;;;;;;;;;;;;5030854;28;20504;-59
2023/10/02 09:42:34;;;;;;;;;;;;;;;;;;5035664;28;19909;-60
2023/10/02 09:45:08;;;;;;;;;;;;;;;;;;5033354;28;19917;-59
2023/10/02 09:47:33;;;;;;;;;;;;;;;;;;5044163;28;20401;-61
2023/10/02 09:50:25;;;;;;;;;;;;;;;;;;5046921;28;19908;-60
2023/10/02 09:52:48;;;;;;;;;;;;;;;;;;5030234;28;19972;-60
2023/10/02 09:55:14;;;;;;;;;;;;;;;;;;5029812;28;19915;-61
2023/10/02 09:57:39;;;;;;;;;;;;;;;;;;5041889;28;19909;-60
2023/10/02 10:00:33;;;;;;;;;;;;;;;;;;5046934;28;19927;-59
2023/10/02 10:02:49;;;;;;;;;;;;;;;;;;5045245;28;19908;-59
2023/10/02 10:07:46;;;;;;;;;;;;;;;;;;5040392;28;19988;-57
2023/10/02 10:10:11;;;;;;;;;;;;;;;;;;5044516;28;19909;-60
2023/10/02 10:12:53;;;;;;;;;;;;;;;;;;5041087;28;19917;-61
2023/10/02 10:15:23;;;;;;;;;;;;;;;;;;5044204;28;19904;-60
2023/10/02 10:17:52;;;;;;;;;;;;;;;;;;5042888;28;19912;-60
2023/10/02 10:20:20;;;;;;;;;;;;;;;;;;5044869;28;19905;-59
2023/10/02 10:22:51;;;;;;;;;;;;;;;;;;5042717;28;19958;-59
2023/10/02 10:28:09;;;;;;;;;;;;;;;;;;5029535;28;19909;-60
2023/10/02 10:30:39;;;;;;;;;;;;;;;;;;5044862;28;20148;-59
2023/10/02 10:35:35;;;;;;;;;;;;;;;;;;5045580;28;19948;-60
2023/10/02 10:38:03;;;;;;;;;;;;;;;;;;5044890;28;20444;-59
2023/10/02 10:43:15;;;;;;;;;;;;;;;;;;5037198;28;19912;-60
2023/10/02 10:45:40;;;;;;;;;;;;;;;;;;5040332;28;19920;-61
2023/10/02 10:48:18;;;;;;;;;;;;;;;;;;5037393;28;19909;-60
2023/10/02 10:50:56;;;;;;;;;;;;;;;;;;5032338;28;19908;-60
2023/10/02 10:53:28;;;;;;;;;;;;;;;;;;5038195;28;20281;-59
2023/10/02 10:55:56;;;;;;;;;;;;;;;;;;5030705;28;19923;-60
2023/10/02 10:58:21;;;;;;;;;;;;;;;;;;5020026;28;19920;-60
2023/10/02 11:00:47;;;;;;;;;;;;;;;;;;5040267;28;19909;-60
2023/10/02 11:03:15;;;;;;;;;;;;;;;;;;5032397;28;20618;-60
2023/10/02 11:05:41;;;;;;;;;;;;;;;;;;5038091;28;19913;-60
2023/10/02 11:08:06;;;;;;;;;;;;;;;;;;5040799;28;20437;-59
2023/10/02 11:10:31;;;;;;;;;;;;;;;;;;5038516;28;20856;-59
2023/10/02 11:12:56;;;;;;;;;;;;;;;;;;5035326;28;19974;-58
2023/10/02 11:18:18;;;;;;;;;;;;;;;;;;5038417;28;19943;-58
2023/10/02 11:20:43;;;;;;;;;;;;;;;;;;5042556;28;19909;-60
2023/10/02 11:23:08;;;;;;;;;;;;;;;;;;5007857;28;19916;-58
2023/10/02 11:25:39;;;;;;;;;;;;;;;;;;5043358;28;20206;-58
2023/10/02 11:28:04;;;;;;;;;;;;;;;;;;5042461;28;20409;-60
2023/10/02 11:30:33;;;;;;;;;;;;;;;;;;5042643;28;19909;-59
2023/10/02 11:32:59;;;;;;;;;;;;;;;;;;5035357;28;20151;-59
2023/10/02 11:35:37;;;;;;;;;;;;;;;;;;5039900;28;20365;-59
2023/10/02 11:38:02;;;;;;;;;;;;;;;;;;5040475;28;19967;-59
2023/10/02 11:40:28;;;;;;;;;;;;;;;;;;5046704;28;19954;-60
2023/10/02 11:42:53;;;;;;;;;;;;;;;;;;5043584;28;19909;-56
2023/10/02 11:45:18;;;;;;;;;;;;;;;;;;5045740;28;20242;-61
2023/10/02 11:47:43;;;;;;;;;;;;;;;;;;5046954;28;20016;-61
2023/10/02 11:50:09;;;;;;;;;;;;;;;;;;5044645;28;19944;-60
2023/10/02 11:52:34;;;;;;;;;;;;;;;;;;5045458;28;19963;-61
2023/10/02 11:54:59;;;;;;;;;;;;;;;;;;5043843;28;19916;-60
2023/10/02 11:57:24;;;;;;;;;;;;;;;;;;5045225;28;20001;-59
2023/10/02 11:59:50;;;;;;;;;;;;;;;;;;5034377;28;20324;-61
2023/10/02 12:02:16;;;;;;;;;;;;;;;;;;5029404;28;19920;-60
2023/10/02 12:04:43;;;;;;;;;;;;;;;;;;5038852;28;20333;-61
2023/10/02 12:07:08;;;;;;;;;;;;;;;;;;5030984;28;19909;-61
2023/10/02 12:09:33;;;;;;;;;;;;;;;;;;5014687;28;19916;-59
2023/10/02 12:11:59;;;;;;;;;;;;;;;;;;5034871;28;20457;-60
2023/10/02 12:14:25;;;;;;;;;;;;;;;;;;5035051;28;19970;-60
2023/10/02 12:16:50;;;;;;;;;;;;;;;;;;5037031;28;19916;-59
2023/10/02 12:19:15;;;;;;;;;;;;;;;;;;5043928;28;19908;-60
2023/10/02 12:21:40;;;;;;;;;;;;;;;;;;5011565;28;19913;-58
2023/10/02 12:24:07;;;;;;;;;;;;;;;;;;5046264;28;20178;-60
2023/10/02 12:26:32;;;;;;;;;;;;;;;;;;5046838;28;19916;-60
2023/10/02 12:28:57;;;;;;;;;;;;;;;;;;5040733;28;19913;-57
2023/10/02 12:31:23;;;;;;;;;;;;;;;;;;5040597;28;19913;-60
2023/10/02 12:33:48;;;;;;;;;;;;;;;;;;5045154;28;19915;-59
2023/10/02 12:36:15;;;;;;;;;;;;;;;;;;5042531;28;19962;-60
2023/10/02 12:38:40;;;;;;;;;;;;;;;;;;5026459;28;19921;-62
2023/10/02 12:41:05;;;;;;;;;;;;;;;;;;5044246;28;20324;-59
2023/10/02 12:43:30;;;;;;;;;;;;;;;;;;5043697;28;20007;-59
2023/10/02 12:45:55;;;;;;;;;;;;;;;;;;5043910;28;19909;-59
2023/10/02 12:48:20;;;;;;;;;;;;;;;;;;5044553;28;20370;-58
2023/10/02 12:50:46;;;;;;;;;;;;;;;;;;5044821;28;19913;-58
2023/10/02 12:53:11;;;;;;;;;;;;;;;;;;5041741;28;20007;-58
2023/10/02 12:55:36;;;;;;;;;;;;;;;;;;5044672;28;19909;-58
2023/10/02 12:58:01;;;;;;;;;;;;;;;;;;5045053;28;19909;-58
2023/10/02 13:00:27;;;;;;;;;;;;;;;;;;5041810;28;19916;-57
2023/10/02 13:02:52;;;;;;;;;;;;;;;;;;5021496;28;19916;-58
2023/10/02 13:05:19;;;;;;;;;;;;;;;;;;5021606;28;21005;-57
2023/10/02 13:07:45;;;;;;;;;;;;;;;;;;5020683;28;19946;-58
2023/10/02 13:10:10;;;;;;;;;;;;;;;;;;5019215;28;19923;-51
2023/10/02 13:12:35;;;;;;;;;;;;;;;;;;5020048;28;20566;-57
2023/10/02 13:15:01;;;;;;;;;;;;;;;;;;5017569;28;19917;-57
2023/10/02 13:17:27;;;;;;;;;;;;;;;;;;5021268;28;19923;-56
2023/10/02 13:19:54;;;;;;;;;;;;;;;;;;5021013;28;19917;-58
2023/10/02 13:22:20;;;;;;;;;;;;;;;;;;5022231;28;20290;-55
2023/10/02 13:24:45;;;;;;;;;;;;;;;;;;5020756;28;19916;-56
2023/10/02 13:27:12;;;;;;;;;;;;;;;;;;5020664;28;20684;-55
2023/10/02 13:29:37;;;;;;;;;;;;;;;;;;5019277;28;19924;-56
2023/10/02 13:32:05;;;;;;;;;;;;;;;;;;5017735;28;19950;-51
2023/10/02 13:34:31;;;;;;;;;;;;;;;;;;5023993;28;19935;-53
2023/10/02 13:36:57;;;;;;;;;;;;;;;;;;5020625;28;19917;-55
2023/10/02 13:39:22;;;;;;;;;;;;;;;;;;4978166;28;20088;-55
2023/10/02 13:41:47;;;;;;;;;;;;;;;;;;4978868;28;19913;-55
2023/10/02 13:44:14;;;;;;;;;;;;;;;;;;4975249;28;20361;-54
2023/10/02 13:46:39;;;;;;;;;;;;;;;;;;4975085;28;19952;-49
2023/10/02 13:49:05;;;;;;;;;;;;;;;;;;4975049;28;20015;-51
2023/10/02 13:51:30;;;;;;;;;;;;;;;;;;4977537;28;19995;-54
2023/10/02 13:53:56;;;;;;;;;;;;;;;;;;4965752;28;20019;-54
2023/10/02 13:56:23;;;;;;;;;;;;;;;;;;4976160;28;19942;-57
2023/10/02 13:58:50;;;;;;;;;;;;;;;;;;4971260;28;19917;-55
2023/10/02 14:01:15;;;;;;;;;;;;;;;;;;4976292;28;20291;-56
2023/10/02 14:03:46;;;;;;;;;;;;;;;;;;4975722;28;19913;-57
2023/10/02 14:06:12;;;;;;;;;;;;;;;;;;4962325;28;20490;-53
2023/10/02 14:08:39;;;;;;;;;;;;;;;;;;4976367;28;19918;-53
2023/10/02 14:11:04;;;;;;;;;;;;;;;;;;5012801;28;20274;-55
2023/10/02 14:13:29;;;;;;;;;;;;;;;;;;5019021;28;20334;-56
2023/10/02 14:15:54;;;;;;;;;;;;;;;;;;5023819;28;20416;-54
2023/10/02 14:18:23;;;;;;;;;;;;;;;;;;5027736;28;19913;-54
2023/10/02 14:20:48;;;;;;;;;;;;;;;;;;5023041;28;19947;-54
2023/10/02 14:23:14;;;;;;;;;;;;;;;;;;5020854;28;20294;-49
2023/10/02 14:25:43;;;;;;;;;;;;;;;;;;4999469;28;19921;-54
2023/10/02 14:28:10;;;;;;;;;;;;;;;;;;5020799;28;20560;-55
2023/10/02 14:30:36;;;;;;;;;;;;;;;;;;5018342;28;19924;-58
2023/10/02 14:33:01;;;;;;;;;;;;;;;;;;5001735;28;19956;-57
2023/10/02 14:35:26;;;;;;;;;;;;;;;;;;5016116;28;19959;-62
2023/10/02 14:37:52;;;;;;;;;;;;;;;;;;5017715;28;19924;-59
2023/10/02 14:40:19;;;;;;;;;;;;;;;;;;5013606;28;19944;-57
2023/10/02 14:42:44;;;;;;;;;;;;;;;;;;5017220;28;20332;-58
2023/10/02 14:45:11;;;;;;;;;;;;;;;;;;5017624;28;19926;-59
2023/10/02 14:47:37;;;;;;;;;;;;;;;;;;5019169;28;19947;-59
2023/10/02 14:50:04;;;;;;;;;;;;;;;;;;5021488;28;19921;-57
2023/10/02 14:52:29;;;;;;;;;;;;;;;;;;5019237;28;20471;-60
2023/10/02 14:54:54;;;;;;;;;;;;;;;;;;5020539;28;19916;-59
2023/10/02 14:57:22;;;;;;;;;;;;;;;;;;5021503;28;19917;-58
2023/10/02 14:59:47;;;;;;;;;;;;;;;;;;5005118;28;22213;-59
2023/10/02 15:02:12;;;;;;;;;;;;;;;;;;5020104;28;20408;-59
2023/10/02 15:04:37;;;;;;;;;;;;;;;;;;4983772;28;20809;-59
2023/10/02 15:07:05;;;;;;;;;;;;;;;;;;5019744;28;19936;-58
2023/10/02 15:09:30;;;;;;;;;;;;;;;;;;5018087;28;19973;-59
2023/10/02 15:11:55;;;;;;;;;;;;;;;;;;5019123;28;19920;-59
2023/10/02 15:14:21;;;;;;;;;;;;;;;;;;5007100;28;22122;-56
2023/10/02 15:16:46;;;;;;;;;;;;;;;;;;5026988;28;19917;-59
2023/10/02 15:19:13;;;;;;;;;;;;;;;;;;5019358;28;20859;-59
2023/10/02 15:21:38;;;;;;;;;;;;;;;;;;5027570;28;19923;-58
2023/10/02 15:24:04;;;;;;;;;;;;;;;;;;5003213;28;20354;-58
2023/10/02 15:26:29;;;;;;;;;;;;;;;;;;5021548;28;19931;-59
2023/10/02 15:28:54;;;;;;;;;;;;;;;;;;5019667;28;20378;-59
2023/10/02 15:31:20;;;;;;;;;;;;;;;;;;5023621;28;20054;-59
2023/10/02 15:33:45;;;;;;;;;;;;;;;;;;5018093;28;19921;-58
2023/10/02 15:36:11;;;;;;;;;;;;;;;;;;5018125;28;19917;-57
2023/10/02 15:38:37;;;;;;;;;;;;;;;;;;5018025;28;19933;-58
2023/10/02 15:41:03;;;;;;;;;;;;;;;;;;5018531;28;20356;-57
2023/10/02 15:43:29;;;;;;;;;;;;;;;;;;5020890;28;20424;-57
2023/10/02 15:45:54;;;;;;;;;;;;;;;;;;5017792;28;19955;-59
2023/10/02 15:48:19;;;;;;;;;;;;;;;;;;5019671;28;19928;-59
2023/10/02 15:50:44;;;;;;;;;;;;;;;;;;5016886;28;20408;-59
2023/10/02 15:53:10;;;;;;;;;;;;;;;;;;5021884;28;19928;-58
2023/10/02 15:55:36;;;;;;;;;;;;;;;;;;5020557;28;19987;-59
2023/10/02 15:58:02;;;;;;;;;;;;;;;;;;5001089;28;22221;-58
2023/10/02 16:00:27;;;;;;;;;;;;;;;;;;5018357;28;19916;-58
2023/10/02 16:02:53;;;;;;;;;;;;;;;;;;5020060;28;19913;-58
2023/10/02 16:05:19;;;;;;;;;;;;;;;;;;5018450;28;21391;-58
2023/10/02 16:07:49;;;;;;;;;;;;;;;;;;5018117;28;20373;-58
2023/10/02 16:10:14;;;;;;;;;;;;;;;;;;5020479;28;19917;-59
2023/10/02 16:12:39;;;;;;;;;;;;;;;;;;5030654;28;20274;-58
2023/10/02 16:15:10;;;;;;;;;;;;;;;;;;5029498;28;19918;-59
2023/10/02 16:17:36;;;;;;;;;;;;;;;;;;5022604;28;19913;-57
2023/10/02 16:20:01;;;;;;;;;;;;;;;;;;5021812;28;19967;-56
2023/10/02 16:22:27;;;;;;;;;;;;;;;;;;5023372;28;20007;-57
2023/10/02 16:24:52;;;;;;;;;;;;;;;;;;5021676;28;20313;-58
2023/10/02 16:27:19;;;;;;;;;;;;;;;;;;5024022;28;20336;-58
2023/10/02 16:29:44;;;;;;;;;;;;;;;;;;5021599;28;19924;-58
2023/10/02 16:32:09;;;;;;;;;;;;;;;;;;5021732;28;19971;-59
2023/10/02 16:34:34;;;;;;;;;;;;;;;;;;5021235;28;19916;-57
2023/10/02 16:37:00;;;;;;;;;;;;;;;;;;5021094;28;19924;-59
2023/10/02 16:39:26;;;;;;;;;;;;;;;;;;5020750;28;20015;-58
2023/10/02 16:41:51;;;;;;;;;;;;;;;;;;5021525;28;20066;-59
2023/10/02 16:44:16;;;;;;;;;;;;;;;;;;5020996;28;19923;-59
2023/10/02 16:46:41;;;;;;;;;;;;;;;;;;5022091;28;19948;-57
2023/10/02 16:49:08;;;;;;;;;;;;;;;;;;5020989;28;19962;-58
2023/10/02 16:51:33;;;;;;;;;;;;;;;;;;5020530;28;19917;-59
2023/10/02 16:53:58;;;;;;;;;;;;;;;;;;5020803;28;19920;-58
2023/10/02 16:56:23;;;;;;;;;;;;;;;;;;5021861;28;19908;-58
2023/10/02 16:58:51;;;;;;;;;;;;;;;;;;5020240;28;19964;-59
2023/10/02 17:01:18;;;;;;;;;;;;;;;;;;5021586;28;19917;-58
2023/10/02 17:03:43;;;;;;;;;;;;;;;;;;5019380;28;20279;-58
2023/10/02 17:06:08;;;;;;;;;;;;;;;;;;5020726;28;19916;-57
2023/10/02 17:08:33;;;;;;;;;;;;;;;;;;5021256;28;19991;-58
2023/10/02 17:11:00;;;;;;;;;;;;;;;;;;5019970;28;20658;-58
2023/10/02 17:13:25;;;;;;;;;;;;;;;;;;5020482;28;19942;-58
2023/10/02 17:15:50;;;;;;;;;;;;;;;;;;5024637;28;19928;-57
2023/10/02 17:18:17;;;;;;;;;;;;;;;;;;5020613;28;19913;-59
2023/10/02 17:20:42;;;;;;;;;;;;;;;;;;5010149;28;19989;-58
2023/10/02 17:23:09;;;;;;;;;;;;;;;;;;5019906;28;19916;-58
2023/10/02 17:25:37;;;;;;;;;;;;;;;;;;5001875;28;19917;-57
2023/10/02 17:28:02;;;;;;;;;;;;;;;;;;5024990;28;19931;-56
2023/10/02 17:30:28;;;;;;;;;;;;;;;;;;5019849;28;20861;-57
2023/10/02 17:32:53;;;;;;;;;;;;;;;;;;5020792;28;19928;-59